sensor_id;sensor_type;location;lat;lon;timestamp;temperature;humidity
80701;DHT22;71609;42.630;23.380;2024-03-02T00:02:02;21.90;36.80
80701;DHT22;71609;42.630;23.380;2024-03-02T00:04:28;21.90;36.80
80701;DHT22;71609;42.630;23.380;2024-03-02T00:06:54;21.90;36.80
80701;DHT22;71609;42.630;23.380;2024-03-02T00:09:20;21.90;36.90
80701;DHT22;71609;42.630;23.380;2024-03-02T00:11:46;21.90;36.90
80701;DHT22;71609;42.630;23.380;2024-03-02T00:14:12;21.90;36.90
80701;DHT22;71609;42.630;23.380;2024-03-02T00:16:38;21.90;36.80
80701;DHT22;71609;42.630;23.380;2024-03-02T00:19:05;21.90;36.90
80701;DHT22;71609;42.630;23.380;2024-03-02T00:21:31;21.90;36.90
80701;DHT22;71609;42.630;23.380;2024-03-02T00:23:58;21.90;36.90
80701;DHT22;71609;42.630;23.380;2024-03-02T00:26:24;21.90;36.90
80701;DHT22;71609;42.630;23.380;2024-03-02T00:28:54;21.90;36.90
80701;DHT22;71609;42.630;23.380;2024-03-02T00:31:22;21.90;36.90
80701;DHT22;71609;42.630;23.380;2024-03-02T00:33:49;21.80;36.80
80701;DHT22;71609;42.630;23.380;2024-03-02T00:36:16;21.80;36.80
80701;DHT22;71609;42.630;23.380;2024-03-02T00:38:52;21.90;36.90
80701;DHT22;71609;42.630;23.380;2024-03-02T00:41:29;21.80;36.90
80701;DHT22;71609;42.630;23.380;2024-03-02T00:46:28;21.80;36.90
80701;DHT22;71609;42.630;23.380;2024-03-02T00:48:57;21.80;36.90
80701;DHT22;71609;42.630;23.380;2024-03-02T00:51:24;21.80;36.90
80701;DHT22;71609;42.630;23.380;2024-03-02T00:53:55;21.80;36.90
80701;DHT22;71609;42.630;23.380;2024-03-02T00:56:23;21.80;36.90
80701;DHT22;71609;42.630;23.380;2024-03-02T00:58:50;21.80;36.90
80701;DHT22;71609;42.630;23.380;2024-03-02T01:01:16;21.80;36.90
80701;DHT22;71609;42.630;23.380;2024-03-02T01:03:42;21.80;37.00
80701;DHT22;71609;42.630;23.380;2024-03-02T01:06:08;21.80;37.00
80701;DHT22;71609;42.630;23.380;2024-03-02T01:08:38;21.80;36.90
80701;DHT22;71609;42.630;23.380;2024-03-02T01:11:04;21.80;37.00
80701;DHT22;71609;42.630;23.380;2024-03-02T01:13:30;21.80;36.90
80701;DHT22;71609;42.630;23.380;2024-03-02T01:15:57;21.80;37.00
80701;DHT22;71609;42.630;23.380;2024-03-02T01:18:23;21.80;37.10
80701;DHT22;71609;42.630;23.380;2024-03-02T01:20:49;21.70;37.00
80701;DHT22;71609;42.630;23.380;2024-03-02T01:23:21;21.70;38.10
80701;DHT22;71609;42.630;23.380;2024-03-02T01:25:47;21.70;37.10
80701;DHT22;71609;42.630;23.380;2024-03-02T01:28:14;21.70;37.00
80701;DHT22;71609;42.630;23.380;2024-03-02T01:30:40;21.70;37.00
80701;DHT22;71609;42.630;23.380;2024-03-02T01:33:06;21.70;37.00
80701;DHT22;71609;42.630;23.380;2024-03-02T01:35:32;21.70;37.00
80701;DHT22;71609;42.630;23.380;2024-03-02T01:37:58;21.70;37.00
80701;DHT22;71609;42.630;23.380;2024-03-02T01:40:24;21.70;37.10
80701;DHT22;71609;42.630;23.380;2024-03-02T01:42:54;21.70;37.10
80701;DHT22;71609;42.630;23.380;2024-03-02T01:45:21;21.70;37.10
80701;DHT22;71609;42.630;23.380;2024-03-02T01:47:47;21.70;37.10
80701;DHT22;71609;42.630;23.380;2024-03-02T01:50:13;21.70;37.00
80701;DHT22;71609;42.630;23.380;2024-03-02T01:52:40;21.70;37.10
80701;DHT22;71609;42.630;23.380;2024-03-02T01:55:06;21.70;37.10
80701;DHT22;71609;42.630;23.380;2024-03-02T01:57:33;21.70;37.10
80701;DHT22;71609;42.630;23.380;2024-03-02T02:00:00;21.70;37.10
80701;DHT22;71609;42.630;23.380;2024-03-02T02:02:28;21.70;37.10
80701;DHT22;71609;42.630;23.380;2024-03-02T02:04:54;21.70;37.10
80701;DHT22;71609;42.630;23.380;2024-03-02T02:07:19;21.70;37.10
80701;DHT22;71609;42.630;23.380;2024-03-02T02:09:45;21.70;37.20
80701;DHT22;71609;42.630;23.380;2024-03-02T02:12:11;21.70;37.10
80701;DHT22;71609;42.630;23.380;2024-03-02T02:14:37;21.70;37.10
80701;DHT22;71609;42.630;23.380;2024-03-02T02:17:05;21.70;37.20
80701;DHT22;71609;42.630;23.380;2024-03-02T02:19:31;21.70;37.20
80701;DHT22;71609;42.630;23.380;2024-03-02T02:21:57;21.70;37.10
80701;DHT22;71609;42.630;23.380;2024-03-02T02:24:22;21.60;37.10
80701;DHT22;71609;42.630;23.380;2024-03-02T02:26:48;21.60;37.10
80701;DHT22;71609;42.630;23.380;2024-03-02T02:29:14;21.70;37.20
80701;DHT22;71609;42.630;23.380;2024-03-02T02:31:40;21.60;37.10
80701;DHT22;71609;42.630;23.380;2024-03-02T02:34:06;21.60;37.10
80701;DHT22;71609;42.630;23.380;2024-03-02T02:36:33;21.60;37.10
80701;DHT22;71609;42.630;23.380;2024-03-02T02:39:03;21.60;37.10
80701;DHT22;71609;42.630;23.380;2024-03-02T02:41:30;21.60;37.20
80701;DHT22;71609;42.630;23.380;2024-03-02T02:43:56;21.60;37.20
80701;DHT22;71609;42.630;23.380;2024-03-02T02:46:22;21.60;37.10
80701;DHT22;71609;42.630;23.380;2024-03-02T02:48:48;21.60;37.20
80701;DHT22;71609;42.630;23.380;2024-03-02T02:51:13;21.60;38.20
80701;DHT22;71609;42.630;23.380;2024-03-02T02:53:39;21.60;37.20
80701;DHT22;71609;42.630;23.380;2024-03-02T02:56:08;21.60;37.10
80701;DHT22;71609;42.630;23.380;2024-03-02T02:58:33;21.60;37.10
80701;DHT22;71609;42.630;23.380;2024-03-02T03:00:59;21.60;37.10
80701;DHT22;71609;42.630;23.380;2024-03-02T03:03:25;21.60;37.20
80701;DHT22;71609;42.630;23.380;2024-03-02T03:05:51;21.60;37.20
80701;DHT22;71609;42.630;23.380;2024-03-02T03:08:16;21.60;37.10
80701;DHT22;71609;42.630;23.380;2024-03-02T03:10:42;21.60;37.20
80701;DHT22;71609;42.630;23.380;2024-03-02T03:13:08;21.60;37.30
80701;DHT22;71609;42.630;23.380;2024-03-02T03:15:37;21.60;37.20
80701;DHT22;71609;42.630;23.380;2024-03-02T03:18:04;21.60;37.20
80701;DHT22;71609;42.630;23.380;2024-03-02T03:20:30;21.60;37.20
80701;DHT22;71609;42.630;23.380;2024-03-02T03:22:56;21.60;37.20
80701;DHT22;71609;42.630;23.380;2024-03-02T03:25:22;21.60;37.20
80701;DHT22;71609;42.630;23.380;2024-03-02T03:27:48;21.60;37.20
80701;DHT22;71609;42.630;23.380;2024-03-02T03:30:14;21.60;37.30
80701;DHT22;71609;42.630;23.380;2024-03-02T03:32:40;21.60;37.30
80701;DHT22;71609;42.630;23.380;2024-03-02T03:35:07;21.60;37.40
80701;DHT22;71609;42.630;23.380;2024-03-02T03:37:32;21.60;37.30
80701;DHT22;71609;42.630;23.380;2024-03-02T03:40:03;21.60;37.40
80701;DHT22;71609;42.630;23.380;2024-03-02T03:42:35;21.60;37.40
80701;DHT22;71609;42.630;23.380;2024-03-02T03:45:02;21.60;37.30
80701;DHT22;71609;42.630;23.380;2024-03-02T03:47:28;21.50;37.20
80701;DHT22;71609;42.630;23.380;2024-03-02T03:49:53;21.60;37.40
80701;DHT22;71609;42.630;23.380;2024-03-02T03:52:19;21.50;37.30
80701;DHT22;71609;42.630;23.380;2024-03-02T03:54:46;21.60;37.40
80701;DHT22;71609;42.630;23.380;2024-03-02T03:57:12;21.50;37.30
80701;DHT22;71609;42.630;23.380;2024-03-02T03:59:38;21.50;37.30
80701;DHT22;71609;42.630;23.380;2024-03-02T04:02:03;21.50;37.40
80701;DHT22;71609;42.630;23.380;2024-03-02T04:04:30;21.50;37.30
80701;DHT22;71609;42.630;23.380;2024-03-02T04:06:55;21.50;37.30
80701;DHT22;71609;42.630;23.380;2024-03-02T04:09:21;21.50;37.30
80701;DHT22;71609;42.630;23.380;2024-03-02T04:11:47;21.50;37.30
80701;DHT22;71609;42.630;23.380;2024-03-02T04:14:13;21.50;37.30
80701;DHT22;71609;42.630;23.380;2024-03-02T04:16:39;21.50;37.30
80701;DHT22;71609;42.630;23.380;2024-03-02T04:19:05;21.50;37.30
80701;DHT22;71609;42.630;23.380;2024-03-02T04:21:31;21.50;37.30
80701;DHT22;71609;42.630;23.380;2024-03-02T04:23:56;21.50;37.30
80701;DHT22;71609;42.630;23.380;2024-03-02T04:26:26;21.50;37.30
80701;DHT22;71609;42.630;23.380;2024-03-02T04:28:52;21.50;37.30
80701;DHT22;71609;42.630;23.380;2024-03-02T04:31:19;21.50;37.30
80701;DHT22;71609;42.630;23.380;2024-03-02T04:33:45;21.50;37.30
80701;DHT22;71609;42.630;23.380;2024-03-02T04:36:11;21.50;37.40
80701;DHT22;71609;42.630;23.380;2024-03-02T04:38:37;21.50;37.30
80701;DHT22;71609;42.630;23.380;2024-03-02T04:41:04;21.50;37.40
80701;DHT22;71609;42.630;23.380;2024-03-02T04:43:32;21.50;37.40
80701;DHT22;71609;42.630;23.380;2024-03-02T04:46:01;21.50;37.40
80701;DHT22;71609;42.630;23.380;2024-03-02T04:48:27;21.50;38.50
80701;DHT22;71609;42.630;23.380;2024-03-02T04:50:53;21.50;37.40
80701;DHT22;71609;42.630;23.380;2024-03-02T04:53:18;21.50;37.40
80701;DHT22;71609;42.630;23.380;2024-03-02T04:55:44;21.50;37.40
80701;DHT22;71609;42.630;23.380;2024-03-02T04:58:10;21.50;37.40
80701;DHT22;71609;42.630;23.380;2024-03-02T05:00:35;21.50;37.50
80701;DHT22;71609;42.630;23.380;2024-03-02T05:03:02;21.50;37.50
80701;DHT22;71609;42.630;23.380;2024-03-02T05:05:28;21.40;37.50
80701;DHT22;71609;42.630;23.380;2024-03-02T05:07:54;21.40;37.40
80701;DHT22;71609;42.630;23.380;2024-03-02T05:10:38;21.50;38.60
80701;DHT22;71609;42.630;23.380;2024-03-02T05:13:04;21.40;37.40
80701;DHT22;71609;42.630;23.380;2024-03-02T05:15:29;21.50;37.50
80701;DHT22;71609;42.630;23.380;2024-03-02T05:17:55;21.40;37.50
80701;DHT22;71609;42.630;23.380;2024-03-02T05:20:22;21.40;37.40
80701;DHT22;71609;42.630;23.380;2024-03-02T05:22:48;21.40;37.40
80701;DHT22;71609;42.630;23.380;2024-03-02T05:25:15;21.40;37.50
80701;DHT22;71609;42.630;23.380;2024-03-02T05:27:41;21.40;37.50
80701;DHT22;71609;42.630;23.380;2024-03-02T05:30:07;21.40;37.50
80701;DHT22;71609;42.630;23.380;2024-03-02T05:32:33;21.40;37.50
80701;DHT22;71609;42.630;23.380;2024-03-02T05:34:59;21.40;37.60
80701;DHT22;71609;42.630;23.380;2024-03-02T05:37:25;21.40;37.50
80701;DHT22;71609;42.630;23.380;2024-03-02T05:39:51;21.40;37.50
80701;DHT22;71609;42.630;23.380;2024-03-02T05:42:16;21.40;37.50
80701;DHT22;71609;42.630;23.380;2024-03-02T05:44:43;21.40;37.50
80701;DHT22;71609;42.630;23.380;2024-03-02T05:47:08;21.40;37.50
80701;DHT22;71609;42.630;23.380;2024-03-02T05:49:35;21.40;37.50
80701;DHT22;71609;42.630;23.380;2024-03-02T05:52:00;21.40;37.50
80701;DHT22;71609;42.630;23.380;2024-03-02T05:54:26;21.40;37.60
80701;DHT22;71609;42.630;23.380;2024-03-02T05:56:52;21.40;37.60
80701;DHT22;71609;42.630;23.380;2024-03-02T05:59:18;21.40;37.60
80701;DHT22;71609;42.630;23.380;2024-03-02T06:01:47;21.40;37.60
80701;DHT22;71609;42.630;23.380;2024-03-02T06:04:14;21.40;37.50
80701;DHT22;71609;42.630;23.380;2024-03-02T06:06:42;21.40;37.60
80701;DHT22;71609;42.630;23.380;2024-03-02T06:09:09;21.40;37.70
80701;DHT22;71609;42.630;23.380;2024-03-02T06:11:41;21.40;37.60
80701;DHT22;71609;42.630;23.380;2024-03-02T06:14:08;21.40;37.70
80701;DHT22;71609;42.630;23.380;2024-03-02T06:16:34;21.40;37.70
80701;DHT22;71609;42.630;23.380;2024-03-02T06:19:00;21.40;37.70
80701;DHT22;71609;42.630;23.380;2024-03-02T06:21:29;21.40;37.70
80701;DHT22;71609;42.630;23.380;2024-03-02T06:23:55;21.40;37.70
80701;DHT22;71609;42.630;23.380;2024-03-02T06:26:22;21.30;37.60
80701;DHT22;71609;42.630;23.380;2024-03-02T06:28:47;21.30;37.60
80701;DHT22;71609;42.630;23.380;2024-03-02T06:31:13;21.30;37.60
80701;DHT22;71609;42.630;23.380;2024-03-02T06:33:39;21.30;37.60
80701;DHT22;71609;42.630;23.380;2024-03-02T06:36:05;21.40;37.70
80701;DHT22;71609;42.630;23.380;2024-03-02T06:38:34;21.30;37.60
80701;DHT22;71609;42.630;23.380;2024-03-02T06:41:00;21.30;37.60
80701;DHT22;71609;42.630;23.380;2024-03-02T06:43:25;21.40;37.70
80701;DHT22;71609;42.630;23.380;2024-03-02T06:45:51;21.30;37.60
80701;DHT22;71609;42.630;23.380;2024-03-02T06:48:18;21.30;37.70
80701;DHT22;71609;42.630;23.380;2024-03-02T06:50:49;21.30;37.60
80701;DHT22;71609;42.630;23.380;2024-03-02T06:53:16;21.40;37.70
80701;DHT22;71609;42.630;23.380;2024-03-02T06:55:45;21.30;37.60
80701;DHT22;71609;42.630;23.380;2024-03-02T06:58:14;21.30;37.60
80701;DHT22;71609;42.630;23.380;2024-03-02T07:00:43;21.30;37.70
80701;DHT22;71609;42.630;23.380;2024-03-02T07:03:09;21.30;37.80
80701;DHT22;71609;42.630;23.380;2024-03-02T07:05:35;21.30;37.70
80701;DHT22;71609;42.630;23.380;2024-03-02T07:08:01;21.30;37.80
80701;DHT22;71609;42.630;23.380;2024-03-02T07:10:29;21.30;37.70
80701;DHT22;71609;42.630;23.380;2024-03-02T07:12:54;21.30;37.80
80701;DHT22;71609;42.630;23.380;2024-03-02T07:15:20;21.30;37.70
80701;DHT22;71609;42.630;23.380;2024-03-02T07:18:01;21.30;37.80
80701;DHT22;71609;42.630;23.380;2024-03-02T07:20:26;21.30;37.80
80701;DHT22;71609;42.630;23.380;2024-03-02T07:22:52;21.30;37.80
80701;DHT22;71609;42.630;23.380;2024-03-02T07:25:18;21.30;37.90
80701;DHT22;71609;42.630;23.380;2024-03-02T07:27:44;21.30;38.90
80701;DHT22;71609;42.630;23.380;2024-03-02T07:30:13;21.30;37.80
80701;DHT22;71609;42.630;23.380;2024-03-02T07:32:39;21.30;37.80
80701;DHT22;71609;42.630;23.380;2024-03-02T07:35:07;21.30;37.80
80701;DHT22;71609;42.630;23.380;2024-03-02T07:37:33;21.30;37.80
80701;DHT22;71609;42.630;23.380;2024-03-02T07:39:59;21.30;37.80
80701;DHT22;71609;42.630;23.380;2024-03-02T07:42:24;21.30;37.90
80701;DHT22;71609;42.630;23.380;2024-03-02T07:44:50;21.30;37.80
80701;DHT22;71609;42.630;23.380;2024-03-02T07:47:16;21.30;37.80
80701;DHT22;71609;42.630;23.380;2024-03-02T07:49:42;21.30;37.90
80701;DHT22;71609;42.630;23.380;2024-03-02T07:52:07;21.30;37.90
80701;DHT22;71609;42.630;23.380;2024-03-02T07:54:33;21.30;37.80
80701;DHT22;71609;42.630;23.380;2024-03-02T07:56:59;21.30;37.90
80701;DHT22;71609;42.630;23.380;2024-03-02T07:59:25;21.30;37.90
80701;DHT22;71609;42.630;23.380;2024-03-02T08:01:51;21.30;37.90
80701;DHT22;71609;42.630;23.380;2024-03-02T08:04:17;21.30;37.80
80701;DHT22;71609;42.630;23.380;2024-03-02T08:06:43;21.30;37.90
80701;DHT22;71609;42.630;23.380;2024-03-02T08:09:08;21.20;37.80
80701;DHT22;71609;42.630;23.380;2024-03-02T08:11:37;21.20;37.80
80701;DHT22;71609;42.630;23.380;2024-03-02T08:14:03;21.30;37.90
80701;DHT22;71609;42.630;23.380;2024-03-02T08:16:29;21.30;37.90
80701;DHT22;71609;42.630;23.380;2024-03-02T08:18:55;21.30;38.00
80701;DHT22;71609;42.630;23.380;2024-03-02T08:21:23;21.30;37.90
80701;DHT22;71609;42.630;23.380;2024-03-02T08:23:50;21.20;37.90
80701;DHT22;71609;42.630;23.380;2024-03-02T08:26:16;21.20;37.90
80701;DHT22;71609;42.630;23.380;2024-03-02T08:28:42;21.20;37.90
80701;DHT22;71609;42.630;23.380;2024-03-02T08:31:08;21.20;37.90
80701;DHT22;71609;42.630;23.380;2024-03-02T08:33:34;21.30;37.90
80701;DHT22;71609;42.630;23.380;2024-03-02T08:36:00;21.30;38.00
80701;DHT22;71609;42.630;23.380;2024-03-02T08:38:26;21.20;37.90
80701;DHT22;71609;42.630;23.380;2024-03-02T08:40:52;21.20;37.90
80701;DHT22;71609;42.630;23.380;2024-03-02T08:43:19;21.20;37.90
80701;DHT22;71609;42.630;23.380;2024-03-02T08:45:45;21.20;37.90
80701;DHT22;71609;42.630;23.380;2024-03-02T08:48:11;21.20;38.00
80701;DHT22;71609;42.630;23.380;2024-03-02T08:50:37;21.20;38.00
80701;DHT22;71609;42.630;23.380;2024-03-02T08:53:05;21.20;38.00
80701;DHT22;71609;42.630;23.380;2024-03-02T08:55:31;21.20;38.00
80701;DHT22;71609;42.630;23.380;2024-03-02T08:57:57;21.20;38.00
80701;DHT22;71609;42.630;23.380;2024-03-02T09:00:23;21.20;38.00
80701;DHT22;71609;42.630;23.380;2024-03-02T09:02:50;21.20;38.00
80701;DHT22;71609;42.630;23.380;2024-03-02T09:05:15;21.20;38.10
80701;DHT22;71609;42.630;23.380;2024-03-02T09:07:41;21.20;38.10
80701;DHT22;71609;42.630;23.380;2024-03-02T09:10:08;21.20;38.10
80701;DHT22;71609;42.630;23.380;2024-03-02T09:12:34;21.20;38.10
80701;DHT22;71609;42.630;23.380;2024-03-02T09:15:01;21.20;38.20
80701;DHT22;71609;42.630;23.380;2024-03-02T09:17:27;21.20;38.20
80701;DHT22;71609;42.630;23.380;2024-03-02T09:19:53;21.20;38.20
80701;DHT22;71609;42.630;23.380;2024-03-02T09:22:19;21.20;38.20
80701;DHT22;71609;42.630;23.380;2024-03-02T09:24:45;21.20;38.20
80701;DHT22;71609;42.630;23.380;2024-03-02T09:27:11;21.20;38.20
80701;DHT22;71609;42.630;23.380;2024-03-02T09:29:37;21.20;38.20
80701;DHT22;71609;42.630;23.380;2024-03-02T09:32:03;21.20;38.20
80701;DHT22;71609;42.630;23.380;2024-03-02T09:34:29;21.20;38.20
80701;DHT22;71609;42.630;23.380;2024-03-02T09:36:55;21.20;38.10
80701;DHT22;71609;42.630;23.380;2024-03-02T09:39:20;21.20;38.10
80701;DHT22;71609;42.630;23.380;2024-03-02T09:41:48;21.20;38.10
80701;DHT22;71609;42.630;23.380;2024-03-02T09:44:14;21.30;38.20
80701;DHT22;71609;42.630;23.380;2024-03-02T09:46:40;21.30;38.10
80701;DHT22;71609;42.630;23.380;2024-03-02T09:49:06;21.30;38.00
80701;DHT22;71609;42.630;23.380;2024-03-02T09:51:32;21.30;38.00
80701;DHT22;71609;42.630;23.380;2024-03-02T09:53:57;21.30;38.00
80701;DHT22;71609;42.630;23.380;2024-03-02T09:56:26;21.30;38.00
80701;DHT22;71609;42.630;23.380;2024-03-02T09:58:52;21.30;38.00
80701;DHT22;71609;42.630;23.380;2024-03-02T10:01:17;21.30;38.00
80701;DHT22;71609;42.630;23.380;2024-03-02T10:03:44;21.30;38.00
80701;DHT22;71609;42.630;23.380;2024-03-02T10:06:24;21.30;38.00
80701;DHT22;71609;42.630;23.380;2024-03-02T10:08:51;21.30;38.00
80701;DHT22;71609;42.630;23.380;2024-03-02T10:11:28;21.30;38.00
80701;DHT22;71609;42.630;23.380;2024-03-02T10:14:11;21.30;38.00
80701;DHT22;71609;42.630;23.380;2024-03-02T10:16:42;21.30;38.00
80701;DHT22;71609;42.630;23.380;2024-03-02T10:19:28;21.30;38.00
80701;DHT22;71609;42.630;23.380;2024-03-02T10:21:59;21.30;38.00
80701;DHT22;71609;42.630;23.380;2024-03-02T10:24:25;21.30;38.00
80701;DHT22;71609;42.630;23.380;2024-03-02T10:26:51;21.30;38.00
80701;DHT22;71609;42.630;23.380;2024-03-02T10:29:17;21.30;38.00
80701;DHT22;71609;42.630;23.380;2024-03-02T10:31:44;21.30;38.00
80701;DHT22;71609;42.630;23.380;2024-03-02T10:34:12;21.30;38.00
80701;DHT22;71609;42.630;23.380;2024-03-02T10:36:41;21.30;38.00
80701;DHT22;71609;42.630;23.380;2024-03-02T10:39:08;21.30;38.00
80701;DHT22;71609;42.630;23.380;2024-03-02T10:41:35;21.40;38.00
80701;DHT22;71609;42.630;23.380;2024-03-02T10:44:03;21.30;37.90
80701;DHT22;71609;42.630;23.380;2024-03-02T10:46:32;21.30;37.90
80701;DHT22;71609;42.630;23.380;2024-03-02T10:48:59;21.40;37.90
80701;DHT22;71609;42.630;23.380;2024-03-02T10:51:29;21.40;37.90
80701;DHT22;71609;42.630;23.380;2024-03-02T10:54:01;21.40;37.90
80701;DHT22;71609;42.630;23.380;2024-03-02T10:56:47;21.40;38.00
80701;DHT22;71609;42.630;23.380;2024-03-02T10:59:28;21.40;37.90
80701;DHT22;71609;42.630;23.380;2024-03-02T11:01:58;21.30;37.80
80701;DHT22;71609;42.630;23.380;2024-03-02T11:04:26;21.40;37.90
80701;DHT22;71609;42.630;23.380;2024-03-02T11:06:56;21.40;37.90
80701;DHT22;71609;42.630;23.380;2024-03-02T11:09:27;21.40;37.90
80701;DHT22;71609;42.630;23.380;2024-03-02T11:12:03;21.40;37.90
80701;DHT22;71609;42.630;23.380;2024-03-02T11:14:32;21.40;37.80
80701;DHT22;71609;42.630;23.380;2024-03-02T11:17:03;21.40;37.90
80701;DHT22;71609;42.630;23.380;2024-03-02T11:19:30;21.40;38.90
80701;DHT22;71609;42.630;23.380;2024-03-02T11:21:56;21.40;37.90
80701;DHT22;71609;42.630;23.380;2024-03-02T11:27:01;21.40;37.80
80701;DHT22;71609;42.630;23.380;2024-03-02T11:32:22;21.40;37.80
80701;DHT22;71609;42.630;23.380;2024-03-02T11:34:50;21.40;37.90
80701;DHT22;71609;42.630;23.380;2024-03-02T11:37:20;21.40;37.80
80701;DHT22;71609;42.630;23.380;2024-03-02T11:39:48;21.40;37.80
80701;DHT22;71609;42.630;23.380;2024-03-02T11:42:15;21.40;37.90
80701;DHT22;71609;42.630;23.380;2024-03-02T11:44:47;21.40;37.80
80701;DHT22;71609;42.630;23.380;2024-03-02T11:47:17;21.40;37.80
80701;DHT22;71609;42.630;23.380;2024-03-02T11:49:48;21.40;37.90
80701;DHT22;71609;42.630;23.380;2024-03-02T11:52:15;21.40;37.70
80701;DHT22;71609;42.630;23.380;2024-03-02T11:54:43;21.40;37.80
80701;DHT22;71609;42.630;23.380;2024-03-02T11:57:18;21.40;37.80
80701;DHT22;71609;42.630;23.380;2024-03-02T11:59:45;21.40;38.00
80701;DHT22;71609;42.630;23.380;2024-03-02T12:02:18;21.40;37.90
80701;DHT22;71609;42.630;23.380;2024-03-02T12:04:45;21.30;37.90
80701;DHT22;71609;42.630;23.380;2024-03-02T12:07:12;21.40;37.90
80701;DHT22;71609;42.630;23.380;2024-03-02T12:09:38;21.40;37.90
80701;DHT22;71609;42.630;23.380;2024-03-02T12:12:09;21.40;37.80
80701;DHT22;71609;42.630;23.380;2024-03-02T12:14:36;21.40;37.90
80701;DHT22;71609;42.630;23.380;2024-03-02T12:17:03;21.40;37.90
80701;DHT22;71609;42.630;23.380;2024-03-02T12:19:30;21.40;37.90
80701;DHT22;71609;42.630;23.380;2024-03-02T12:21:59;21.30;38.90
80701;DHT22;71609;42.630;23.380;2024-03-02T12:24:29;21.30;37.90
80701;DHT22;71609;42.630;23.380;2024-03-02T12:26:55;21.30;37.90
80701;DHT22;71609;42.630;23.380;2024-03-02T12:29:22;21.40;38.00
80701;DHT22;71609;42.630;23.380;2024-03-02T12:31:48;21.30;37.90
80701;DHT22;71609;42.630;23.380;2024-03-02T12:34:15;21.30;37.90
80701;DHT22;71609;42.630;23.380;2024-03-02T12:36:42;21.30;38.00
80701;DHT22;71609;42.630;23.380;2024-03-02T12:39:08;21.30;37.90
80701;DHT22;71609;42.630;23.380;2024-03-02T12:41:38;21.30;38.00
80701;DHT22;71609;42.630;23.380;2024-03-02T12:44:05;21.30;38.00
80701;DHT22;71609;42.630;23.380;2024-03-02T12:46:32;21.30;37.90
80701;DHT22;71609;42.630;23.380;2024-03-02T12:48:58;21.30;38.00
80701;DHT22;71609;42.630;23.380;2024-03-02T12:51:30;21.30;38.00
80701;DHT22;71609;42.630;23.380;2024-03-02T12:53:57;21.30;38.00
80701;DHT22;71609;42.630;23.380;2024-03-02T12:56:24;21.30;38.00
80701;DHT22;71609;42.630;23.380;2024-03-02T12:58:54;21.30;38.00
80701;DHT22;71609;42.630;23.380;2024-03-02T13:01:20;21.30;38.00
80701;DHT22;71609;42.630;23.380;2024-03-02T13:03:49;21.30;38.00
80701;DHT22;71609;42.630;23.380;2024-03-02T13:06:17;21.30;38.00
80701;DHT22;71609;42.630;23.380;2024-03-02T13:08:44;21.30;38.00
80701;DHT22;71609;42.630;23.380;2024-03-02T13:11:10;21.20;38.00
80701;DHT22;71609;42.630;23.380;2024-03-02T13:13:36;21.30;38.00
80701;DHT22;71609;42.630;23.380;2024-03-02T13:16:01;21.30;38.00
80701;DHT22;71609;42.630;23.380;2024-03-02T13:18:29;21.20;38.00
80701;DHT22;71609;42.630;23.380;2024-03-02T13:20:55;21.30;38.00
80701;DHT22;71609;42.630;23.380;2024-03-02T13:23:21;21.30;38.00
80701;DHT22;71609;42.630;23.380;2024-03-02T13:25:47;21.30;38.10
80701;DHT22;71609;42.630;23.380;2024-03-02T13:28:13;21.20;38.00
80701;DHT22;71609;42.630;23.380;2024-03-02T13:30:39;21.30;38.00
80701;DHT22;71609;42.630;23.380;2024-03-02T13:33:05;21.20;38.00
80701;DHT22;71609;42.630;23.380;2024-03-02T13:35:30;21.20;38.00
80701;DHT22;71609;42.630;23.380;2024-03-02T13:37:56;21.20;38.00
80701;DHT22;71609;42.630;23.380;2024-03-02T13:40:22;21.20;38.00
80701;DHT22;71609;42.630;23.380;2024-03-02T13:42:49;21.20;38.00
80701;DHT22;71609;42.630;23.380;2024-03-02T13:45:17;21.20;38.00
80701;DHT22;71609;42.630;23.380;2024-03-02T13:47:44;21.20;38.00
80701;DHT22;71609;42.630;23.380;2024-03-02T13:50:09;21.30;38.00
80701;DHT22;71609;42.630;23.380;2024-03-02T13:52:35;21.30;38.00
80701;DHT22;71609;42.630;23.380;2024-03-02T13:55:01;21.30;38.00
80701;DHT22;71609;42.630;23.380;2024-03-02T13:57:27;21.20;38.00
80701;DHT22;71609;42.630;23.380;2024-03-02T13:59:54;21.30;38.00
80701;DHT22;71609;42.630;23.380;2024-03-02T14:02:20;21.30;38.00
80701;DHT22;71609;42.630;23.380;2024-03-02T14:04:46;21.30;38.10
80701;DHT22;71609;42.630;23.380;2024-03-02T14:07:14;21.20;38.00
80701;DHT22;71609;42.630;23.380;2024-03-02T14:09:39;21.30;38.00
80701;DHT22;71609;42.630;23.380;2024-03-02T14:12:07;21.30;38.00
80701;DHT22;71609;42.630;23.380;2024-03-02T14:14:32;21.30;38.00
80701;DHT22;71609;42.630;23.380;2024-03-02T14:16:59;21.30;38.00
80701;DHT22;71609;42.630;23.380;2024-03-02T14:19:29;21.30;38.00
80701;DHT22;71609;42.630;23.380;2024-03-02T14:21:54;21.30;38.10
80701;DHT22;71609;42.630;23.380;2024-03-02T14:24:21;21.30;38.10
80701;DHT22;71609;42.630;23.380;2024-03-02T14:26:53;21.20;38.00
80701;DHT22;71609;42.630;23.380;2024-03-02T14:29:19;21.30;38.00
80701;DHT22;71609;42.630;23.380;2024-03-02T14:31:45;21.20;38.10
80701;DHT22;71609;42.630;23.380;2024-03-02T14:34:14;21.20;38.00
80701;DHT22;71609;42.630;23.380;2024-03-02T14:36:40;21.20;38.10
80701;DHT22;71609;42.630;23.380;2024-03-02T14:39:08;21.20;38.00
80701;DHT22;71609;42.630;23.380;2024-03-02T14:41:36;21.30;38.00
80701;DHT22;71609;42.630;23.380;2024-03-02T14:44:02;21.20;38.00
80701;DHT22;71609;42.630;23.380;2024-03-02T14:46:28;21.20;38.00
80701;DHT22;71609;42.630;23.380;2024-03-02T14:48:54;21.20;38.00
80701;DHT22;71609;42.630;23.380;2024-03-02T14:51:20;21.20;38.00
80701;DHT22;71609;42.630;23.380;2024-03-02T14:53:45;21.20;38.10
80701;DHT22;71609;42.630;23.380;2024-03-02T14:56:11;21.20;38.10
80701;DHT22;71609;42.630;23.380;2024-03-02T14:58:39;21.20;38.10
80701;DHT22;71609;42.630;23.380;2024-03-02T15:01:05;21.20;38.10
80701;DHT22;71609;42.630;23.380;2024-03-02T15:03:32;21.20;38.20
80701;DHT22;71609;42.630;23.380;2024-03-02T15:05:58;21.20;38.10
80701;DHT22;71609;42.630;23.380;2024-03-02T15:08:24;21.20;38.10
80701;DHT22;71609;42.630;23.380;2024-03-02T15:10:50;21.20;38.20
80701;DHT22;71609;42.630;23.380;2024-03-02T15:13:16;21.20;38.10
80701;DHT22;71609;42.630;23.380;2024-03-02T15:15:42;21.20;38.20
80701;DHT22;71609;42.630;23.380;2024-03-02T15:18:07;21.20;38.10
80701;DHT22;71609;42.630;23.380;2024-03-02T15:20:34;21.20;38.10
80701;DHT22;71609;42.630;23.380;2024-03-02T15:23:00;21.20;38.20